Current Weather

Kayes/Dag-Dag

Kayes/Dag-Dag, Mali (GAKD)

Report from: Tuesday, March 5, 2024 12:00 AM UTC
Current time: Tuesday, March 5, 2024 12:57 AM UTC

Nearby weather – Weather history – Daily summaries
Weather forecast

Temperature28.0°C (82.4°F)
Heat index27.0°C (80.6°F)
Dew point4.0°C (39.2°F)
Winds 4 kts (2.1 m/s, 4.6 mph) East (80°)
Visibility3.7 mi. (6 km)
Altimeter29.91 in.Hg (1013 mB)
Relative humidity22 %
Density altitude1,628 ft. (496 m)
Flight conditions Marginal Visual Meteorological Conditions
Raw dataGAKD 050000Z 08004KT 6000 NSC 28/04 Q1013
An error has occurred. This application may no longer respond until reloaded. Reload 🗙